createdAt,value
2019-02-23T00:00:45.142Z,26.70
2019-02-23T00:03:13.284Z,25.80
2019-02-23T00:05:41.457Z,25.23
2019-02-23T00:08:09.604Z,26.47
2019-02-23T00:10:37.748Z,26.53
2019-02-23T00:13:06.581Z,27.47
2019-02-23T00:15:34.720Z,27.87
2019-02-23T00:18:02.860Z,26.80
2019-02-23T00:20:31.040Z,27.10
2019-02-23T00:22:59.201Z,27.23
2019-02-23T00:25:27.328Z,27.37
2019-02-23T00:27:55.497Z,25.87
2019-02-23T00:30:23.641Z,26.03
2019-02-23T00:32:51.796Z,31.73
2019-02-23T00:35:20.084Z,27.33
2019-02-23T00:37:48.224Z,26.33
2019-02-23T00:40:16.370Z,27.27
2019-02-23T00:42:44.544Z,28.40
2019-02-23T00:45:12.689Z,28.37
2019-02-23T00:47:41.125Z,27.50
2019-02-23T00:50:09.297Z,27.63
2019-02-23T00:52:37.453Z,27.20
2019-02-23T00:55:06.343Z,27.87
2019-02-23T00:57:34.503Z,27.23
2019-02-23T01:00:03.010Z,27.50
2019-02-23T01:02:31.147Z,28.13
2019-02-23T01:05:00.995Z,28.13
2019-02-23T01:07:29.127Z,30.00
2019-02-23T01:09:57.372Z,27.90
2019-02-23T01:12:27.616Z,27.20
2019-02-23T01:14:55.752Z,28.87
2019-02-23T01:17:23.964Z,27.67
2019-02-23T01:19:52.155Z,26.53
2019-02-23T01:22:20.292Z,27.40
2019-02-23T01:24:48.436Z,27.40
2019-02-23T01:27:16.612Z,29.30
2019-02-23T01:29:44.760Z,27.50
2019-02-23T01:32:12.892Z,30.00
2019-02-23T01:34:41.930Z,28.13
2019-02-23T01:37:10.068Z,28.70
2019-02-23T01:39:39.542Z,36.33
2019-02-23T01:42:07.739Z,29.00
2019-02-23T01:44:35.880Z,29.50
2019-02-23T01:47:04.027Z,27.10
2019-02-23T01:49:32.216Z,27.43
2019-02-23T01:52:00.358Z,28.17
2019-02-23T01:54:28.500Z,27.67
2019-02-23T01:56:56.681Z,28.87
2019-02-23T01:59:26.532Z,27.33
2019-02-23T02:01:54.667Z,26.90
2019-02-23T02:04:23.116Z,29.33
2019-02-23T02:06:51.272Z,29.33
2019-02-23T02:09:19.407Z,28.10
2019-02-23T02:11:47.584Z,27.03
2019-02-23T02:14:15.740Z,29.03
2019-02-23T02:16:43.891Z,28.53
2019-02-23T02:19:12.056Z,28.10
2019-02-23T02:21:40.200Z,28.20
2019-02-23T02:24:08.336Z,26.80
2019-02-23T02:26:36.508Z,27.67
2019-02-23T02:29:04.647Z,28.60
2019-02-23T02:31:32.829Z,29.20
2019-02-23T02:34:02.905Z,27.60
2019-02-23T02:36:31.044Z,28.00
2019-02-23T02:38:59.180Z,27.20
2019-02-23T02:41:27.356Z,28.17
2019-02-23T02:43:55.497Z,28.50
2019-02-23T02:46:23.636Z,26.87
2019-02-23T02:48:51.810Z,28.67
2019-02-23T02:51:20.083Z,26.97
2019-02-23T02:53:48.229Z,28.07
2019-02-23T02:56:16.630Z,27.80
2019-02-23T02:58:44.780Z,27.63
2019-02-23T03:01:13.295Z,28.43
2019-02-23T03:03:41.464Z,28.70
2019-02-23T03:06:09.615Z,28.33
2019-02-23T03:08:37.759Z,28.97
2019-02-23T03:11:05.924Z,26.80
2019-02-23T03:13:34.142Z,29.00
2019-02-23T03:16:02.209Z,26.93
2019-02-23T03:18:31.545Z,27.73
2019-02-23T03:20:59.689Z,27.77
2019-02-23T03:23:27.824Z,27.93
2019-02-23T03:25:56.132Z,26.70
2019-02-23T03:28:24.280Z,29.07
2019-02-23T03:30:52.416Z,27.33
2019-02-23T03:33:20.607Z,28.53
2019-02-23T03:35:48.744Z,26.30
2019-02-23T03:38:16.897Z,27.87
2019-02-23T03:40:45.061Z,27.77
2019-02-23T03:43:13.469Z,28.47
2019-02-23T03:45:41.612Z,26.50
2019-02-23T03:48:09.904Z,28.67
2019-02-23T03:50:48.772Z,27.33
2019-02-23T03:53:07.829Z,26.90
2019-02-23T03:55:36.001Z,28.33
2019-02-23T03:58:05.317Z,28.90
2019-02-23T04:00:33.561Z,29.00
2019-02-23T04:03:01.736Z,28.23
2019-02-23T04:05:29.888Z,26.77
2019-02-23T04:07:58.028Z,27.07
2019-02-23T04:10:26.199Z,27.90
2019-02-23T04:12:54.705Z,27.33
2019-02-23T04:15:22.860Z,27.17
2019-02-23T04:17:51.032Z,28.30
2019-02-23T04:20:19.182Z,27.70
2019-02-23T04:22:47.318Z,27.43
2019-02-23T04:25:15.490Z,27.57
2019-02-23T04:27:44.897Z,28.00
2019-02-23T04:30:13.051Z,27.47
2019-02-23T04:32:41.283Z,26.97
2019-02-23T04:35:09.584Z,27.63
2019-02-23T04:37:38.748Z,26.37
2019-02-23T04:40:07.410Z,27.80
2019-02-23T04:42:35.529Z,27.80
2019-02-23T04:45:04.444Z,25.73
2019-02-23T04:47:32.641Z,27.13
2019-02-23T04:50:00.777Z,26.47
2019-02-23T04:52:28.931Z,26.63
2019-02-23T04:54:57.113Z,27.40
2019-02-23T04:57:25.252Z,26.30
2019-02-23T04:59:58.090Z,27.77
2019-02-23T05:02:26.245Z,26.70
2019-02-23T05:04:56.035Z,27.90
2019-02-23T05:07:24.225Z,27.30
2019-02-23T05:09:52.406Z,24.57
2019-02-23T05:12:21.934Z,27.43
2019-02-23T05:14:55.885Z,27.20
2019-02-23T05:17:25.650Z,26.03
2019-02-23T05:19:53.890Z,24.03
2019-02-23T05:22:22.397Z,25.37
2019-02-23T05:24:53.299Z,24.87
2019-02-23T05:27:20.316Z,23.77
2019-02-23T05:29:49.139Z,27.07
2019-02-23T05:32:17.365Z,25.17
2019-02-23T05:34:45.721Z,26.20
2019-02-23T05:37:14.228Z,24.80
2019-02-23T05:39:44.859Z,25.67
2019-02-23T05:42:16.428Z,27.30
2019-02-23T05:44:48.678Z,27.30
2019-02-23T05:47:17.183Z,26.77
2019-02-23T05:49:45.492Z,26.23
2019-02-23T05:52:13.662Z,27.53
2019-02-23T05:54:41.801Z,28.10
2019-02-23T05:57:10.783Z,27.33
2019-02-23T05:59:39.152Z,28.00
2019-02-23T06:02:08.977Z,26.00
2019-02-23T06:04:43.509Z,26.33
2019-02-23T06:07:15.870Z,25.07
2019-02-23T06:09:44.038Z,25.87
2019-02-23T06:12:12.177Z,25.67
2019-02-23T06:14:40.365Z,25.93
2019-02-23T06:17:08.515Z,25.33
2019-02-23T06:19:36.830Z,26.23
2019-02-23T06:22:05.923Z,24.60
2019-02-23T06:24:34.058Z,23.60
2019-02-23T06:27:02.199Z,24.37
2019-02-23T06:29:30.376Z,24.77
2019-02-23T06:31:58.527Z,25.47
2019-02-23T06:34:26.678Z,26.00
2019-02-23T06:36:54.853Z,25.53
2019-02-23T06:39:23.041Z,24.73
2019-02-23T06:41:51.508Z,24.07
2019-02-23T06:44:19.710Z,25.27
2019-02-23T06:46:47.848Z,25.13
2019-02-23T06:49:15.995Z,24.90
2019-02-23T06:51:44.188Z,24.43
2019-02-23T06:54:12.334Z,23.77
2019-02-23T06:56:40.492Z,24.77
2019-02-23T06:59:08.706Z,22.60
2019-02-23T07:01:36.873Z,24.77
2019-02-23T07:04:05.035Z,23.33
2019-02-23T07:06:52.630Z,25.20
2019-02-23T07:09:20.764Z,24.57
2019-02-23T07:11:49.217Z,23.83
2019-02-23T07:14:17.393Z,25.00
2019-02-23T07:16:45.539Z,23.90
2019-02-23T07:19:15.005Z,25.97
2019-02-23T07:21:43.251Z,26.07
2019-02-23T07:24:11.468Z,24.03
2019-02-23T07:26:39.614Z,23.43
2019-02-23T07:29:07.784Z,24.73
2019-02-23T07:31:35.928Z,24.73
2019-02-23T07:34:04.069Z,24.50
2019-02-23T07:36:32.366Z,23.93
2019-02-23T07:39:00.502Z,24.87
2019-02-23T07:41:29.149Z,23.57
2019-02-23T07:43:57.433Z,23.67
2019-02-23T07:46:25.652Z,25.30
2019-02-23T07:48:53.797Z,22.10
2019-02-23T07:51:21.971Z,22.87
2019-02-23T07:53:50.115Z,23.40
2019-02-23T07:56:18.261Z,27.50
2019-02-23T07:58:46.758Z,23.53
2019-02-23T08:01:14.890Z,22.60
2019-02-23T08:03:43.029Z,25.35
2019-02-23T08:06:11.196Z,25.68
2019-02-23T08:08:39.341Z,22.43
2019-02-23T08:11:09.108Z,22.90
2019-02-23T08:13:37.312Z,21.97
2019-02-23T08:16:05.442Z,21.70
2019-02-23T08:18:35.528Z,20.23
2019-02-23T08:21:03.415Z,20.37
2019-02-23T08:23:31.684Z,24.55
2019-02-23T08:25:59.837Z,19.67
2019-02-23T08:28:27.999Z,20.17
2019-02-23T08:30:56.148Z,21.40
2019-02-23T08:33:24.279Z,19.70
2019-02-23T08:35:52.464Z,20.10
2019-02-23T08:38:20.603Z,20.73
2019-02-23T08:40:48.748Z,23.57
2019-02-23T08:43:16.916Z,21.57
2019-02-23T08:45:45.079Z,20.43
2019-02-23T08:48:13.330Z,19.13
2019-02-23T08:50:41.501Z,19.80
2019-02-23T08:53:09.651Z,19.47
2019-02-23T08:55:37.832Z,21.10
2019-02-23T08:58:06.077Z,22.47
2019-02-23T09:00:34.213Z,18.37
2019-02-23T09:03:02.359Z,19.03
2019-02-23T09:05:30.528Z,18.23
2019-02-23T09:07:59.989Z,18.80
2019-02-23T09:10:28.132Z,18.03
2019-02-23T09:12:57.295Z,17.53
2019-02-23T09:15:25.428Z,17.13
2019-02-23T09:17:53.909Z,18.37
2019-02-23T09:20:29.027Z,17.53
2019-02-23T09:22:59.861Z,18.33
2019-02-23T09:25:21.652Z,18.17
2019-02-23T09:27:49.833Z,17.87
2019-02-23T09:30:17.976Z,17.33
2019-02-23T09:32:46.112Z,17.23
2019-02-23T09:35:15.596Z,16.63
2019-02-23T09:37:43.742Z,16.40
2019-02-23T09:40:13.156Z,17.60
2019-02-23T09:42:41.448Z,16.90
2019-02-23T09:45:11.279Z,18.63
2019-02-23T09:47:39.419Z,17.87
2019-02-23T09:50:07.588Z,16.47
2019-02-23T09:52:35.725Z,16.77
2019-02-23T09:55:06.136Z,16.93
2019-02-23T09:57:34.308Z,17.33
2019-02-23T10:00:02.452Z,17.73
2019-02-23T10:02:30.756Z,18.10
2019-02-23T10:04:59.252Z,17.43
2019-02-23T10:07:27.376Z,17.77
2019-02-23T10:09:55.712Z,16.27
2019-02-23T10:12:23.893Z,16.83
2019-02-23T10:14:52.063Z,16.50
2019-02-23T10:17:20.201Z,16.73
2019-02-23T10:19:48.363Z,15.63
2019-02-23T10:22:16.495Z,16.50
2019-02-23T10:24:44.705Z,16.70
2019-02-23T10:27:12.886Z,19.85
2019-02-23T10:29:41.097Z,17.90
2019-02-23T10:32:09.248Z,18.12
2019-02-23T10:34:37.415Z,17.30
2019-02-23T10:37:05.560Z,16.17
2019-02-23T10:39:33.696Z,16.40
2019-02-23T10:42:01.889Z,14.70
2019-02-23T10:44:30.032Z,14.20
2019-02-23T10:46:58.169Z,17.73
2019-02-23T10:49:26.348Z,17.48
2019-02-23T10:51:54.484Z,14.77
2019-02-23T10:54:22.620Z,16.03
2019-02-23T10:56:50.843Z,14.60
2019-02-23T10:59:18.932Z,13.97
2019-02-23T11:01:47.090Z,14.30
2019-02-23T11:04:15.244Z,14.53
2019-02-23T11:06:43.398Z,13.57
2019-02-23T11:09:13.169Z,13.70
2019-02-23T11:11:41.432Z,14.27
2019-02-23T11:14:09.640Z,14.70
2019-02-23T11:16:37.783Z,14.40
2019-02-23T11:19:05.956Z,14.53
2019-02-23T11:21:34.093Z,14.13
2019-02-23T11:24:02.237Z,14.30
2019-02-23T11:26:30.419Z,13.13
2019-02-23T11:28:58.562Z,14.10
2019-02-23T11:31:26.720Z,14.40
2019-02-23T11:33:54.899Z,14.13
2019-02-23T11:36:23.049Z,13.57
2019-02-23T11:38:51.190Z,13.93
2019-02-23T11:41:20.488Z,12.83
2019-02-23T11:43:48.684Z,14.00
2019-02-23T11:46:16.826Z,13.57
2019-02-23T11:48:45.008Z,14.47
2019-02-23T11:51:13.148Z,13.57
2019-02-23T11:53:41.377Z,13.83
2019-02-23T11:56:09.548Z,14.70
2019-02-23T11:58:38.024Z,13.30
2019-02-23T12:01:06.162Z,12.93
2019-02-23T12:03:34.339Z,13.13
2019-02-23T12:06:02.494Z,12.37
2019-02-23T12:08:30.632Z,14.07
2019-02-23T12:10:58.803Z,13.13
2019-02-23T12:13:26.948Z,13.57
2019-02-23T12:15:55.100Z,13.17
2019-02-23T12:18:23.289Z,12.83
2019-02-23T12:20:51.432Z,14.07
2019-02-23T12:23:19.720Z,14.07
2019-02-23T12:25:50.207Z,12.87
2019-02-23T12:28:18.365Z,13.43
2019-02-23T12:30:46.523Z,12.70
2019-02-23T12:33:15.135Z,12.40
2019-02-23T12:35:43.375Z,13.13
2019-02-23T12:38:11.524Z,12.90
2019-02-23T12:40:39.702Z,11.87
2019-02-23T12:43:07.838Z,12.57
2019-02-23T12:45:36.115Z,12.40
2019-02-23T12:48:04.902Z,11.87
2019-02-23T12:50:33.544Z,12.30
2019-02-23T12:53:01.890Z,12.57
2019-02-23T12:55:30.069Z,12.37
2019-02-23T12:57:58.784Z,13.10
2019-02-23T13:00:26.929Z,12.50
2019-02-23T13:02:55.727Z,11.63
2019-02-23T13:05:23.877Z,12.73
2019-02-23T13:07:52.056Z,12.20
2019-02-23T13:10:20.228Z,11.93
2019-02-23T13:12:52.882Z,12.03
2019-02-23T13:15:22.664Z,12.30
2019-02-23T13:17:52.808Z,12.47
2019-02-23T13:20:25.433Z,12.33
2019-02-23T13:23:11.812Z,11.90
2019-02-23T13:25:44.289Z,12.80
2019-02-23T13:28:14.060Z,13.43
2019-02-23T13:30:46.796Z,11.77
2019-02-23T13:33:16.579Z,13.10
2019-02-23T13:35:49.293Z,12.27
2019-02-23T13:38:19.114Z,12.13
2019-02-23T13:41:07.119Z,12.40
2019-02-23T13:43:36.924Z,13.77
2019-02-23T13:46:12.831Z,12.03
2019-02-23T13:48:45.612Z,12.83
2019-02-23T13:51:27.344Z,13.20
2019-02-23T13:54:14.525Z,12.37
2019-02-23T13:56:46.972Z,13.20
2019-02-23T13:59:25.737Z,12.93
2019-02-23T14:02:07.685Z,12.40
2019-02-23T14:04:37.499Z,12.17
2019-02-23T14:07:10.186Z,12.43
2019-02-23T14:09:48.697Z,13.60
2019-02-23T14:12:24.373Z,12.20
2019-02-23T14:14:58.505Z,13.17
2019-02-23T14:17:30.954Z,12.90
2019-02-23T14:20:17.600Z,12.20
2019-02-23T14:23:03.365Z,12.17
2019-02-23T14:25:33.712Z,12.53
2019-02-23T14:28:06.742Z,12.57
2019-02-23T14:30:51.694Z,13.13
2019-02-23T14:33:21.478Z,12.00
2019-02-23T14:35:51.253Z,13.07
2019-02-23T14:38:29.745Z,12.63
2019-02-23T14:41:02.291Z,12.97
2019-02-23T14:43:40.807Z,12.73
2019-02-23T14:46:10.576Z,12.47
2019-02-23T14:48:52.476Z,11.93
2019-02-23T14:51:22.247Z,11.90
2019-02-23T14:53:52.015Z,11.63
2019-02-23T14:56:27.515Z,12.23
2019-02-23T14:59:00.064Z,11.37
2019-02-23T15:01:32.800Z,12.07
2019-02-23T15:04:05.561Z,12.83
2019-02-23T15:06:52.044Z,12.27
2019-02-23T15:09:30.979Z,11.63
2019-02-23T15:12:04.939Z,13.33
2019-02-23T15:14:51.096Z,12.97
2019-02-23T15:17:21.290Z,13.67
2019-02-23T15:20:08.465Z,13.20
2019-02-23T15:22:55.023Z,14.10
2019-02-23T15:25:41.471Z,12.60
2019-02-23T15:28:35.655Z,12.87
2019-02-23T15:30:51.616Z,13.13
2019-02-23T15:33:24.090Z,13.00
2019-02-23T15:35:59.829Z,14.37
2019-02-23T15:38:46.642Z,13.37
2019-02-23T15:41:22.207Z,13.67
2019-02-23T15:44:10.052Z,13.37
2019-02-23T15:46:39.870Z,13.97
2019-02-23T15:49:09.638Z,15.33
2019-02-23T15:51:37.990Z,14.40
2019-02-23T15:54:06.128Z,14.63
2019-02-23T15:56:34.264Z,14.77
2019-02-23T15:59:02.457Z,15.47
2019-02-23T16:01:31.531Z,15.17
2019-02-23T16:03:59.680Z,15.50
2019-02-23T16:06:27.861Z,15.10
2019-02-23T16:08:56.004Z,15.93
2019-02-23T16:11:24.170Z,17.97
2019-02-23T16:13:52.372Z,16.50
2019-02-23T16:16:22.168Z,16.90
2019-02-23T16:18:51.983Z,17.47
2019-02-23T16:21:24.251Z,17.83
2019-02-23T16:23:52.400Z,17.93
2019-02-23T16:26:23.026Z,17.07
2019-02-23T16:28:51.216Z,18.17
2019-02-23T16:31:19.378Z,17.33
2019-02-23T16:33:48.793Z,17.53
2019-02-23T16:36:16.970Z,18.43
2019-02-23T16:38:45.114Z,18.00
2019-02-23T16:41:13.260Z,18.67
2019-02-23T16:43:41.741Z,18.47
2019-02-23T16:46:09.888Z,18.17
2019-02-23T16:48:38.265Z,18.20
2019-02-23T16:51:07.449Z,17.50
2019-02-23T16:53:35.585Z,17.70
2019-02-23T16:56:03.734Z,18.27
2019-02-23T16:58:31.910Z,18.30
2019-02-23T17:01:00.097Z,18.70
2019-02-23T17:03:29.851Z,16.57
2019-02-23T17:05:58.112Z,17.57
2019-02-23T17:08:26.266Z,17.27
2019-02-23T17:10:54.413Z,16.27
2019-02-23T17:13:22.596Z,17.37
2019-02-23T17:15:51.056Z,15.90
2019-02-23T17:18:19.501Z,16.20
2019-02-23T17:20:49.326Z,16.70
2019-02-23T17:23:17.481Z,15.57
2019-02-23T17:25:45.650Z,15.77
2019-02-23T17:28:13.881Z,15.57
2019-02-23T17:30:41.980Z,16.23
2019-02-23T17:33:10.136Z,16.33
2019-02-23T17:35:38.315Z,15.57
2019-02-23T17:38:15.717Z,16.50
2019-02-23T17:40:36.244Z,16.33
2019-02-23T17:43:04.464Z,15.83
2019-02-23T17:45:32.570Z,15.80
2019-02-23T17:48:00.989Z,16.00
2019-02-23T17:50:29.171Z,15.47
2019-02-23T17:52:57.312Z,15.47
2019-02-23T17:55:25.462Z,15.63
2019-02-23T17:57:55.564Z,14.97
2019-02-23T18:00:25.089Z,14.77
2019-02-23T18:02:53.248Z,15.67
2019-02-23T18:05:21.413Z,14.67
2019-02-23T18:07:49.556Z,15.33
2019-02-23T18:10:18.016Z,14.90
2019-02-23T18:12:46.192Z,15.10
2019-02-23T18:15:17.531Z,15.73
2019-02-23T18:17:47.301Z,17.15
2019-02-23T18:20:15.470Z,15.70
2019-02-23T18:22:43.608Z,15.17
2019-02-23T18:25:11.759Z,15.20
2019-02-23T18:27:39.936Z,14.87
2019-02-23T18:30:11.335Z,14.27
2019-02-23T18:32:39.429Z,14.27
2019-02-23T18:35:08.210Z,14.17
2019-02-23T18:37:36.353Z,14.87
2019-02-23T18:40:05.479Z,16.10
2019-02-23T18:42:33.665Z,14.83
2019-02-23T18:45:01.946Z,14.70
2019-02-23T18:47:30.153Z,15.97
2019-02-23T18:49:58.335Z,17.10
2019-02-23T18:52:26.500Z,15.93
2019-02-23T18:54:54.664Z,15.87
2019-02-23T18:57:23.239Z,15.13
2019-02-23T18:59:51.396Z,15.77
2019-02-23T19:02:19.537Z,15.40
2019-02-23T19:04:47.713Z,16.43
2019-02-23T19:07:15.916Z,15.30
2019-02-23T19:09:44.053Z,15.43
2019-02-23T19:12:12.232Z,16.33
2019-02-23T19:14:40.377Z,15.80
2019-02-23T19:17:09.427Z,14.90
2019-02-23T19:19:37.673Z,16.70
2019-02-23T19:22:05.816Z,14.80
2019-02-23T19:24:34.331Z,15.23
2019-02-23T19:27:02.503Z,15.17
2019-02-23T19:29:30.752Z,15.20
2019-02-23T19:31:58.902Z,16.10
2019-02-23T19:34:27.068Z,15.73
2019-02-23T19:36:58.264Z,15.03
2019-02-23T19:39:26.408Z,15.17
2019-02-23T19:41:55.356Z,15.35
2019-02-23T19:44:23.611Z,15.10
2019-02-23T19:46:52.625Z,14.70
2019-02-23T19:49:20.801Z,15.37
2019-02-23T19:51:48.944Z,14.33
2019-02-23T19:54:17.298Z,14.57
2019-02-23T19:56:47.064Z,15.23
2019-02-23T19:59:15.275Z,15.33
2019-02-23T20:01:43.509Z,14.90
2019-02-23T20:04:11.794Z,15.43
2019-02-23T20:06:42.340Z,15.57
2019-02-23T20:09:10.557Z,15.37
2019-02-23T20:11:38.733Z,15.47
2019-02-23T20:14:07.157Z,16.30
2019-02-23T20:16:35.341Z,15.33
2019-02-23T20:19:03.523Z,15.83
2019-02-23T20:21:31.796Z,15.97
2019-02-23T20:24:00.148Z,15.10
2019-02-23T20:26:28.285Z,15.10
2019-02-23T20:28:56.426Z,15.53
2019-02-23T20:31:26.208Z,15.57
2019-02-23T20:33:54.638Z,16.10
2019-02-23T20:36:22.836Z,15.73
2019-02-23T20:38:50.984Z,15.37
2019-02-23T20:41:19.179Z,16.13
2019-02-23T20:43:47.318Z,15.40
2019-02-23T20:46:16.040Z,15.37
2019-02-23T20:48:44.224Z,15.13
2019-02-23T20:51:12.381Z,14.73
2019-02-23T20:53:40.530Z,15.47
2019-02-23T20:56:08.697Z,15.57
2019-02-23T20:58:36.846Z,15.37
2019-02-23T21:01:04.994Z,15.47
2019-02-23T21:03:33.901Z,15.10
2019-02-23T21:06:02.126Z,14.20
2019-02-23T21:08:30.260Z,14.57
2019-02-23T21:10:58.558Z,14.43
2019-02-23T21:13:26.701Z,14.70
2019-02-23T21:15:54.997Z,14.67
2019-02-23T21:18:23.251Z,15.57
2019-02-23T21:20:51.731Z,14.97
2019-02-23T21:23:20.148Z,15.30
2019-02-23T21:25:48.308Z,14.50
2019-02-23T21:28:16.568Z,15.53
2019-02-23T21:30:45.076Z,14.57
2019-02-23T21:33:13.260Z,15.17
2019-02-23T21:35:41.419Z,15.93
2019-02-23T21:38:09.540Z,14.50
2019-02-23T21:40:37.712Z,14.60
2019-02-23T21:43:06.215Z,15.00
2019-02-23T21:45:34.352Z,13.97
2019-02-23T21:48:02.537Z,14.57
2019-02-23T21:50:30.688Z,14.77
2019-02-23T21:52:58.829Z,15.80
2019-02-23T21:55:26.996Z,15.07
2019-02-23T21:57:55.267Z,14.23
2019-02-23T22:00:23.424Z,14.90
2019-02-23T22:02:51.604Z,15.40
2019-02-23T22:05:19.822Z,14.73
2019-02-23T22:07:52.198Z,15.97
2019-02-23T22:10:20.418Z,15.90
2019-02-23T22:12:48.610Z,15.60
2019-02-23T22:15:16.771Z,15.13
2019-02-23T22:17:45.984Z,15.63
2019-02-23T22:20:14.221Z,15.17
2019-02-23T22:22:43.097Z,15.17
2019-02-23T22:25:11.692Z,15.83
2019-02-23T22:27:41.472Z,15.50
2019-02-23T22:30:10.847Z,15.23
2019-02-23T22:32:40.469Z,15.17
2019-02-23T22:35:10.095Z,15.67
2019-02-23T22:37:42.507Z,15.47
2019-02-23T22:40:16.654Z,14.57
2019-02-23T22:42:44.520Z,15.20
2019-02-23T22:45:13.037Z,15.03
2019-02-23T22:47:58.012Z,14.63
2019-02-23T22:50:32.225Z,14.73
2019-02-23T22:53:00.404Z,14.30
2019-02-23T22:55:28.569Z,14.77
2019-02-23T22:57:56.850Z,14.17
2019-02-23T23:00:26.657Z,15.03
2019-02-23T23:02:54.800Z,14.20
2019-02-23T23:05:27.485Z,14.17
2019-02-23T23:07:59.850Z,14.37
2019-02-23T23:10:27.957Z,14.23
2019-02-23T23:12:57.795Z,14.53
2019-02-23T23:15:27.790Z,14.70
2019-02-23T23:17:56.700Z,14.80
2019-02-23T23:20:24.976Z,14.83
2019-02-23T23:23:08.233Z,14.47
2019-02-23T23:25:44.920Z,15.37
2019-02-23T23:28:14.499Z,14.43
2019-02-23T23:30:42.634Z,13.33
2019-02-23T23:33:10.847Z,14.33
2019-02-23T23:35:40.675Z,14.17
2019-02-23T23:38:08.848Z,14.30
2019-02-23T23:40:37.117Z,14.30
2019-02-23T23:43:05.287Z,14.47
2019-02-23T23:45:35.833Z,14.27
2019-02-23T23:48:03.984Z,13.73
2019-02-23T23:50:32.160Z,13.30
2019-02-23T23:53:00.323Z,13.33
2019-02-23T23:55:28.584Z,13.37
2019-02-23T23:57:58.495Z,13.80
